createdAt,value
2023-05-18T00:01:08.026Z,91.33
2023-05-18T00:03:41.382Z,91.18
2023-05-18T00:06:16.366Z,91.38
2023-05-18T00:08:49.374Z,91.85
2023-05-18T00:11:22.985Z,91.17
2023-05-18T00:13:56.020Z,91.89
2023-05-18T00:16:29.082Z,92.69
2023-05-18T00:19:02.575Z,93.27
2023-05-18T00:21:36.985Z,92.66
2023-05-18T00:24:10.927Z,92.90
2023-05-18T00:26:46.448Z,92.88
2023-05-18T00:29:19.596Z,92.97
2023-05-18T00:31:52.727Z,92.77
2023-05-18T00:34:25.773Z,93.18
2023-05-18T00:37:00.115Z,93.28
2023-05-18T00:39:33.103Z,93.22
2023-05-18T00:42:06.795Z,93.03
2023-05-18T00:44:39.868Z,93.41
2023-05-18T00:47:12.838Z,93.96
2023-05-18T00:49:46.069Z,93.58
2023-05-18T00:52:21.347Z,94.07
2023-05-18T00:54:55.087Z,94.12
2023-05-18T00:57:28.505Z,93.45
2023-05-18T01:00:02.327Z,94.11
2023-05-18T01:02:37.042Z,94.40
2023-05-18T01:05:11.102Z,95.06
2023-05-18T01:07:45.702Z,95.00
2023-05-18T01:10:20.823Z,95.08
2023-05-18T01:12:58.490Z,94.77
2023-05-18T01:15:36.724Z,94.97
2023-05-18T01:18:16.427Z,94.63
2023-05-18T01:20:59.544Z,94.78
2023-05-18T01:24:05.264Z,94.86
2023-05-18T01:26:45.239Z,94.60
2023-05-18T01:29:21.921Z,94.76
2023-05-18T01:31:55.000Z,95.06
2023-05-18T01:34:28.290Z,95.07
2023-05-18T01:37:01.374Z,95.08
2023-05-18T01:39:34.471Z,95.16
2023-05-18T01:42:15.896Z,95.30
2023-05-18T01:44:55.059Z,95.27
2023-05-18T01:47:31.620Z,95.66
2023-05-18T01:50:11.578Z,95.34
2023-05-18T01:52:48.862Z,95.32
2023-05-18T01:55:22.821Z,95.41
2023-05-18T01:57:58.562Z,95.31
2023-05-18T02:00:31.967Z,95.43
2023-05-18T02:03:05.199Z,95.16
2023-05-18T02:05:38.302Z,94.41
2023-05-18T02:08:11.607Z,94.53
2023-05-18T02:10:44.624Z,94.09
2023-05-18T02:13:19.012Z,93.83
2023-05-18T02:15:52.113Z,92.84
2023-05-18T02:18:26.817Z,92.77
2023-05-18T02:21:00.658Z,92.42
2023-05-18T02:23:33.912Z,92.26
2023-05-18T02:26:07.533Z,92.59
2023-05-18T02:28:41.976Z,92.86
2023-05-18T02:31:15.081Z,93.04
2023-05-18T02:33:48.092Z,92.82
2023-05-18T02:36:22.582Z,93.80
2023-05-18T02:38:57.201Z,93.55
2023-05-18T02:41:30.257Z,93.94
2023-05-18T02:44:05.355Z,93.69
2023-05-18T02:46:38.405Z,93.64
2023-05-18T02:49:11.854Z,93.80
2023-05-18T02:51:44.861Z,93.46
2023-05-18T02:54:17.836Z,93.68
2023-05-18T02:56:50.836Z,93.50
2023-05-18T02:59:25.507Z,93.70
2023-05-18T03:01:58.553Z,93.22
2023-05-18T03:04:31.986Z,93.25
2023-05-18T03:07:07.300Z,93.36
2023-05-18T03:09:40.432Z,93.20
2023-05-18T03:12:13.481Z,93.00
2023-05-18T03:14:47.874Z,92.91
2023-05-18T03:17:21.069Z,93.48
2023-05-18T03:19:54.122Z,93.04
2023-05-18T03:22:27.124Z,94.06
2023-05-18T03:25:02.393Z,93.61
2023-05-18T03:27:35.493Z,94.45
2023-05-18T03:30:11.371Z,94.56
2023-05-18T03:32:44.429Z,94.47
2023-05-18T03:35:17.668Z,94.65
2023-05-18T03:37:50.729Z,95.43
2023-05-18T03:40:24.937Z,95.20
2023-05-18T03:42:57.984Z,95.28
2023-05-18T03:45:32.562Z,95.30
2023-05-18T03:48:06.640Z,95.11
2023-05-18T03:50:40.767Z,95.92
2023-05-18T03:53:13.889Z,95.70
2023-05-18T03:55:47.149Z,96.04
2023-05-18T03:58:21.076Z,95.89
2023-05-18T04:00:55.496Z,96.03
2023-05-18T04:03:28.613Z,96.37
2023-05-18T04:06:01.715Z,96.23
2023-05-18T04:08:35.133Z,95.98
2023-05-18T04:11:08.138Z,95.70
2023-05-18T04:13:41.958Z,95.24
2023-05-18T04:16:16.668Z,94.61
2023-05-18T04:18:49.775Z,95.06
2023-05-18T04:21:23.137Z,95.32
2023-05-18T04:23:59.675Z,95.24
2023-05-18T04:26:34.625Z,94.18
2023-05-18T04:29:07.901Z,94.97
2023-05-18T04:31:42.743Z,95.62
2023-05-18T04:34:17.953Z,95.33
2023-05-18T04:36:54.433Z,95.01
2023-05-18T04:39:27.817Z,95.17
2023-05-18T04:42:00.931Z,94.93
2023-05-18T04:44:34.683Z,95.06
2023-05-18T04:47:09.385Z,94.61
2023-05-18T04:49:42.413Z,94.19
2023-05-18T04:52:15.467Z,94.67
2023-05-18T04:54:48.878Z,94.61
2023-05-18T04:57:22.021Z,94.08
2023-05-18T04:59:55.088Z,94.61
2023-05-18T05:02:29.550Z,93.71
2023-05-18T05:05:02.651Z,93.19
2023-05-18T05:07:35.794Z,91.94
2023-05-18T05:10:10.516Z,91.30
2023-05-18T05:12:43.618Z,91.47
2023-05-18T05:15:16.739Z,88.32
2023-05-18T05:17:51.505Z,88.29
2023-05-18T05:20:24.617Z,85.87
2023-05-18T05:22:57.760Z,80.98
2023-05-18T05:25:31.200Z,78.38
2023-05-18T05:28:04.853Z,75.50
2023-05-18T05:30:37.967Z,72.45
2023-05-18T05:33:12.497Z,71.01
2023-05-18T05:35:45.691Z,69.77
2023-05-18T05:38:18.820Z,66.30
2023-05-18T05:40:51.849Z,65.26
2023-05-18T05:43:24.994Z,63.52
2023-05-18T05:45:58.087Z,63.15
2023-05-18T05:48:32.757Z,60.97
2023-05-18T05:51:05.900Z,58.12
2023-05-18T05:53:38.941Z,57.25
2023-05-18T05:56:11.973Z,58.45
2023-05-18T05:58:45.125Z,57.35
2023-05-18T06:01:18.232Z,54.81
2023-05-18T06:03:52.714Z,55.54
2023-05-18T06:06:25.791Z,54.35
2023-05-18T06:08:58.955Z,52.92
2023-05-18T06:11:32.253Z,51.44
2023-05-18T06:14:05.343Z,52.49
2023-05-18T06:16:38.677Z,50.27
2023-05-18T06:19:13.212Z,50.82
2023-05-18T06:21:46.366Z,50.70
2023-05-18T06:24:19.440Z,49.78
2023-05-18T06:26:52.491Z,49.50
2023-05-18T06:29:25.603Z,49.00
2023-05-18T06:31:59.001Z,49.66
2023-05-18T06:34:33.453Z,48.78
2023-05-18T06:37:06.879Z,46.87
2023-05-18T06:39:40.890Z,47.62
2023-05-18T06:42:14.005Z,46.58
2023-05-18T06:44:47.054Z,45.52
2023-05-18T06:47:20.189Z,45.57
2023-05-18T06:49:54.574Z,45.23
2023-05-18T06:52:27.734Z,45.55
2023-05-18T06:55:02.492Z,44.97
2023-05-18T06:57:35.590Z,44.21
2023-05-18T07:00:10.354Z,43.05
2023-05-18T07:02:45.653Z,42.42
2023-05-18T07:05:20.334Z,43.70
2023-05-18T07:07:53.426Z,42.87
2023-05-18T07:10:26.594Z,44.31
2023-05-18T07:12:59.670Z,43.71
2023-05-18T07:15:33.154Z,42.42
2023-05-18T07:18:06.692Z,40.75
2023-05-18T07:20:41.134Z,41.58
2023-05-18T07:23:14.686Z,41.19
2023-05-18T07:25:49.054Z,41.66
2023-05-18T07:28:22.296Z,41.26
2023-05-18T07:30:55.376Z,41.19
2023-05-18T07:33:28.489Z,41.23
2023-05-18T07:36:02.886Z,39.75
2023-05-18T07:38:35.947Z,39.61
2023-05-18T07:41:09.070Z,37.47
2023-05-18T07:43:42.187Z,37.44
2023-05-18T07:46:15.447Z,37.24
2023-05-18T07:48:48.513Z,38.34
2023-05-18T07:51:23.155Z,38.73
2023-05-18T07:53:56.286Z,38.96
2023-05-18T07:56:29.407Z,37.76
2023-05-18T07:59:02.480Z,36.96
2023-05-18T08:01:37.656Z,35.91
2023-05-18T08:04:11.017Z,36.97
2023-05-18T08:06:45.568Z,38.87
2023-05-18T08:09:18.637Z,38.32
2023-05-18T08:11:52.575Z,38.96
2023-05-18T08:14:25.602Z,41.00
2023-05-18T08:16:58.808Z,40.13
2023-05-18T08:19:31.995Z,39.22
2023-05-18T08:22:06.563Z,40.82
2023-05-18T08:24:39.648Z,40.92
2023-05-18T08:27:12.729Z,40.21
2023-05-18T08:29:45.780Z,40.28
2023-05-18T08:32:18.961Z,40.08
2023-05-18T08:34:52.030Z,39.73
2023-05-18T08:37:29.740Z,39.62
2023-05-18T08:40:03.340Z,38.88
2023-05-18T08:42:49.135Z,39.86
2023-05-18T08:45:33.705Z,40.49
2023-05-18T08:48:07.438Z,39.59
2023-05-18T08:50:43.240Z,41.38
2023-05-18T08:53:19.620Z,42.12
2023-05-18T08:55:55.486Z,41.80
2023-05-18T08:58:36.508Z,40.72
2023-05-18T09:01:10.047Z,41.76
2023-05-18T09:03:43.675Z,43.09
2023-05-18T09:06:17.096Z,41.27
2023-05-18T09:08:54.130Z,41.79
2023-05-18T09:11:28.815Z,41.79
2023-05-18T09:14:02.439Z,40.71
2023-05-18T09:16:35.746Z,41.06
2023-05-18T09:19:10.029Z,40.03
2023-05-18T09:21:43.240Z,40.30
2023-05-18T09:24:19.330Z,39.94
2023-05-18T09:26:52.667Z,40.13
2023-05-18T09:29:25.724Z,41.09
2023-05-18T09:32:03.967Z,40.15
2023-05-18T09:34:48.305Z,40.41
2023-05-18T09:37:23.041Z,39.19
2023-05-18T09:40:06.056Z,39.28
2023-05-18T09:42:40.456Z,41.16
2023-05-18T09:45:19.425Z,41.19
2023-05-18T09:47:53.348Z,41.16
2023-05-18T09:50:27.399Z,40.90
2023-05-18T09:53:01.683Z,40.96
2023-05-18T09:55:39.738Z,40.65
2023-05-18T09:58:12.891Z,40.34
2023-05-18T10:00:51.851Z,39.80
2023-05-18T10:03:26.377Z,40.13
2023-05-18T10:06:05.212Z,39.21
2023-05-18T10:08:39.050Z,39.84
2023-05-18T10:11:13.692Z,40.72
2023-05-18T10:13:47.017Z,40.07
2023-05-18T10:16:20.472Z,39.94
2023-05-18T10:18:55.858Z,41.69
2023-05-18T10:21:31.536Z,40.60
2023-05-18T10:24:08.717Z,39.94
2023-05-18T10:26:45.074Z,39.91
2023-05-18T10:29:18.827Z,41.20
2023-05-18T10:31:53.579Z,40.80
2023-05-18T10:34:27.031Z,41.23
2023-05-18T10:37:04.185Z,40.64
2023-05-18T10:39:38.440Z,41.68
2023-05-18T10:42:15.059Z,40.09
2023-05-18T10:44:49.486Z,41.46
2023-05-18T10:47:25.735Z,40.72
2023-05-18T10:50:01.375Z,40.05
2023-05-18T10:52:34.871Z,39.46
2023-05-18T10:55:10.408Z,40.09
2023-05-18T10:58:06.941Z,40.98
2023-05-18T11:00:42.528Z,39.77
2023-05-18T11:03:18.663Z,40.15
2023-05-18T11:06:04.855Z,39.56
2023-05-18T11:08:45.408Z,40.77
2023-05-18T11:11:19.837Z,41.88
2023-05-18T11:13:54.516Z,40.94
2023-05-18T11:16:35.722Z,40.69
2023-05-18T11:19:11.456Z,40.79
2023-05-18T11:21:55.016Z,41.37
2023-05-18T11:24:32.467Z,40.74
2023-05-18T11:27:16.173Z,41.23
2023-05-18T11:29:57.816Z,40.93
2023-05-18T11:32:41.364Z,40.91
2023-05-18T11:35:24.948Z,41.64
2023-05-18T11:38:08.427Z,39.75
2023-05-18T11:40:49.242Z,40.82
2023-05-18T11:43:23.350Z,40.40
2023-05-18T11:46:00.758Z,41.38
2023-05-18T11:48:34.936Z,41.57
2023-05-18T11:51:10.106Z,39.98
2023-05-18T11:53:43.374Z,39.00
2023-05-18T11:56:16.476Z,40.19
2023-05-18T11:59:13.670Z,39.72
2023-05-18T12:01:48.995Z,39.39
2023-05-18T12:04:22.314Z,38.98
2023-05-18T12:06:56.427Z,40.54
2023-05-18T12:09:32.636Z,39.12
2023-05-18T12:12:06.942Z,40.99
2023-05-18T12:14:42.690Z,38.47
2023-05-18T12:17:17.193Z,38.30
2023-05-18T12:19:51.151Z,38.26
2023-05-18T12:22:28.137Z,38.33
2023-05-18T12:25:01.202Z,38.13
2023-05-18T12:27:40.129Z,38.42
2023-05-18T12:30:18.053Z,38.67
2023-05-18T12:32:55.254Z,38.69
2023-05-18T12:35:31.198Z,38.07
2023-05-18T12:38:05.300Z,37.25
2023-05-18T12:40:46.364Z,37.70
2023-05-18T12:43:19.436Z,38.17
2023-05-18T12:45:52.572Z,38.09
2023-05-18T12:48:27.092Z,37.01
2023-05-18T12:51:00.156Z,38.04
2023-05-18T12:53:43.638Z,37.89
2023-05-18T12:56:18.160Z,37.68
2023-05-18T12:58:58.431Z,38.83
2023-05-18T13:01:31.986Z,38.45
2023-05-18T13:04:12.608Z,37.42
2023-05-18T13:06:46.109Z,37.27
2023-05-18T13:09:19.939Z,37.76
2023-05-18T13:12:06.161Z,38.01
2023-05-18T13:14:40.961Z,38.01
2023-05-18T13:17:23.349Z,37.99
2023-05-18T13:19:59.864Z,37.73
2023-05-18T13:22:33.000Z,38.02
2023-05-18T13:25:07.715Z,38.15
2023-05-18T13:27:40.968Z,38.49
2023-05-18T13:30:16.529Z,38.70
2023-05-18T13:32:52.283Z,38.13
2023-05-18T13:35:27.092Z,37.04
2023-05-18T13:38:00.171Z,36.96
2023-05-18T13:40:33.285Z,37.08
2023-05-18T13:43:06.823Z,37.92
2023-05-18T13:45:40.998Z,38.32
2023-05-18T13:48:14.397Z,38.72
2023-05-18T13:50:48.945Z,37.86
2023-05-18T13:53:22.070Z,38.06
2023-05-18T13:55:55.263Z,37.83
2023-05-18T13:58:28.270Z,38.03
2023-05-18T14:01:04.111Z,38.08
2023-05-18T14:03:37.499Z,38.34
2023-05-18T14:06:12.167Z,38.02
2023-05-18T14:08:45.237Z,38.19
2023-05-18T14:11:18.287Z,38.69
2023-05-18T14:13:51.428Z,37.61
2023-05-18T14:16:24.504Z,38.27
2023-05-18T14:18:57.679Z,37.81
2023-05-18T14:21:32.197Z,37.30
2023-05-18T14:24:07.614Z,37.36
2023-05-18T14:26:40.740Z,37.51
2023-05-18T14:29:13.957Z,37.88
2023-05-18T14:31:47.341Z,38.96
2023-05-18T14:34:20.899Z,38.73
2023-05-18T14:36:55.492Z,39.40
2023-05-18T14:39:28.529Z,39.07
2023-05-18T14:42:01.610Z,38.89
2023-05-18T14:44:34.658Z,39.03
2023-05-18T14:47:08.006Z,38.76
2023-05-18T14:49:41.080Z,39.01
2023-05-18T14:52:15.509Z,39.53
2023-05-18T14:54:48.766Z,38.70
2023-05-18T14:57:21.859Z,37.30
2023-05-18T14:59:54.972Z,37.57
2023-05-18T15:02:28.075Z,37.48
2023-05-18T15:05:01.343Z,37.57
2023-05-18T15:07:35.992Z,38.92
2023-05-18T15:10:11.050Z,38.79
2023-05-18T15:12:44.094Z,39.58
2023-05-18T15:15:17.847Z,39.01
2023-05-18T15:17:50.925Z,37.92
2023-05-18T15:20:24.612Z,38.68
2023-05-18T15:22:59.167Z,39.40
2023-05-18T15:25:32.434Z,38.18
2023-05-18T15:28:05.911Z,38.49
2023-05-18T15:30:38.953Z,38.71
2023-05-18T15:33:12.034Z,37.86
2023-05-18T15:35:45.157Z,38.07
2023-05-18T15:38:19.816Z,38.60
2023-05-18T15:40:52.903Z,38.41
2023-05-18T15:43:26.215Z,38.34
2023-05-18T15:45:59.534Z,37.30
2023-05-18T15:48:32.624Z,37.05
2023-05-18T15:51:05.697Z,37.88
2023-05-18T15:53:40.136Z,38.01
2023-05-18T15:56:13.252Z,38.44
2023-05-18T15:58:46.747Z,38.25
2023-05-18T16:01:19.921Z,37.81
2023-05-18T16:03:53.198Z,37.56
2023-05-18T16:06:26.341Z,37.88
2023-05-18T16:09:00.770Z,38.51
2023-05-18T16:11:35.585Z,38.69
2023-05-18T16:14:08.681Z,38.40
2023-05-18T16:16:41.849Z,38.72
2023-05-18T16:19:15.096Z,39.11
2023-05-18T16:21:48.597Z,38.79
2023-05-18T16:24:23.028Z,38.78
2023-05-18T16:26:56.500Z,38.44
2023-05-18T16:29:29.613Z,39.06
2023-05-18T16:32:02.774Z,39.34
2023-05-18T16:34:36.046Z,39.10
2023-05-18T16:37:09.169Z,38.94
2023-05-18T16:39:43.566Z,39.45
2023-05-18T16:42:18.248Z,37.71
2023-05-18T16:44:51.322Z,38.00
2023-05-18T16:47:24.439Z,38.43
2023-05-18T16:49:57.575Z,38.08
2023-05-18T16:52:30.739Z,38.34
2023-05-18T16:55:05.642Z,38.18
2023-05-18T16:57:39.602Z,38.54
2023-05-18T17:00:14.452Z,39.12
2023-05-18T17:02:47.754Z,39.07
2023-05-18T17:05:22.924Z,39.29
2023-05-18T17:07:56.238Z,38.91
2023-05-18T17:10:32.063Z,38.44
2023-05-18T17:13:06.211Z,38.97
2023-05-18T17:15:39.424Z,38.85
2023-05-18T17:18:12.524Z,39.10
2023-05-18T17:20:45.673Z,39.26
2023-05-18T17:23:18.856Z,39.86
2023-05-18T17:26:00.874Z,39.66
2023-05-18T17:28:38.730Z,39.71
2023-05-18T17:31:11.836Z,39.55
2023-05-18T17:33:47.193Z,39.75
2023-05-18T17:36:20.364Z,39.90
2023-05-18T17:38:53.566Z,39.81
2023-05-18T17:41:27.997Z,41.07
2023-05-18T17:44:01.169Z,40.95
2023-05-18T17:46:34.316Z,40.40
2023-05-18T17:49:07.412Z,40.89
2023-05-18T17:51:41.372Z,41.30
2023-05-18T17:54:14.814Z,41.03
2023-05-18T17:56:49.303Z,40.82
2023-05-18T17:59:22.332Z,40.78
2023-05-18T18:01:55.525Z,41.47
2023-05-18T18:04:28.554Z,41.00
2023-05-18T18:07:01.697Z,41.07
2023-05-18T18:09:34.781Z,41.79
2023-05-18T18:12:10.495Z,42.05
2023-05-18T18:14:43.548Z,42.34
2023-05-18T18:17:16.646Z,43.08
2023-05-18T18:19:49.731Z,42.82
2023-05-18T18:22:22.856Z,43.07
2023-05-18T18:24:56.676Z,43.05
2023-05-18T18:27:31.103Z,43.06
2023-05-18T18:30:04.692Z,43.21
2023-05-18T18:32:37.950Z,43.47
2023-05-18T18:35:11.418Z,43.78
2023-05-18T18:37:45.818Z,44.10
2023-05-18T18:40:18.861Z,43.92
2023-05-18T18:42:53.265Z,44.63
2023-05-18T18:45:26.870Z,44.50
2023-05-18T18:48:00.460Z,44.82
2023-05-18T18:50:33.798Z,44.83
2023-05-18T18:53:06.918Z,45.29
2023-05-18T18:55:39.977Z,46.14
2023-05-18T18:58:14.461Z,45.00
2023-05-18T19:00:47.481Z,45.72
2023-05-18T19:03:21.770Z,46.03
2023-05-18T19:05:54.845Z,45.96
2023-05-18T19:08:27.964Z,46.44
2023-05-18T19:11:01.125Z,46.37
2023-05-18T19:13:35.518Z,46.92
2023-05-18T19:16:08.904Z,46.99
2023-05-18T19:18:41.926Z,47.22
2023-05-18T19:21:15.021Z,47.40
2023-05-18T19:23:48.137Z,47.57
2023-05-18T19:26:21.534Z,47.19
2023-05-18T19:28:55.923Z,47.48
2023-05-18T19:31:31.667Z,47.50
2023-05-18T19:34:04.864Z,47.52
2023-05-18T19:36:39.608Z,47.75
2023-05-18T19:39:12.636Z,47.75
2023-05-18T19:41:46.646Z,47.99
2023-05-18T19:44:21.069Z,48.14
2023-05-18T19:46:54.316Z,48.59
2023-05-18T19:49:27.520Z,48.69
2023-05-18T19:52:00.592Z,48.76
2023-05-18T19:54:33.669Z,48.81
2023-05-18T19:57:07.214Z,48.98
2023-05-18T19:59:42.703Z,49.25
2023-05-18T20:02:15.810Z,49.59
2023-05-18T20:04:48.855Z,49.88
2023-05-18T20:07:22.532Z,50.43
2023-05-18T20:09:55.898Z,50.49
2023-05-18T20:12:28.982Z,50.74
2023-05-18T20:15:03.410Z,51.00
2023-05-18T20:17:38.045Z,51.56
2023-05-18T20:20:12.203Z,52.10
2023-05-18T20:22:45.299Z,52.31
2023-05-18T20:25:19.121Z,51.97
2023-05-18T20:27:52.633Z,52.56
2023-05-18T20:30:27.159Z,53.44
2023-05-18T20:33:00.319Z,53.51
2023-05-18T20:35:34.367Z,53.97
2023-05-18T20:38:07.490Z,54.25
2023-05-18T20:40:41.558Z,54.44
2023-05-18T20:43:17.995Z,55.21
2023-05-18T20:45:52.633Z,56.34
2023-05-18T20:48:27.000Z,56.62
2023-05-18T20:51:00.695Z,56.25
2023-05-18T20:53:33.805Z,56.56
2023-05-18T20:56:06.914Z,56.19
2023-05-18T20:58:42.572Z,56.24
2023-05-18T21:01:18.493Z,56.22
2023-05-18T21:03:51.858Z,57.21
2023-05-18T21:06:25.507Z,58.28
2023-05-18T21:08:59.117Z,58.87
2023-05-18T21:11:32.201Z,58.65
2023-05-18T21:14:05.351Z,59.95
2023-05-18T21:16:40.656Z,59.86
2023-05-18T21:19:14.048Z,60.66
2023-05-18T21:21:47.214Z,61.55
2023-05-18T21:24:20.366Z,60.36
2023-05-18T21:26:53.800Z,60.30
2023-05-18T21:29:26.949Z,60.74
2023-05-18T21:32:03.754Z,61.70
2023-05-18T21:34:36.846Z,61.30
2023-05-18T21:37:09.928Z,62.47
2023-05-18T21:39:44.024Z,63.68
2023-05-18T21:42:17.219Z,64.24
2023-05-18T21:44:50.223Z,63.86
2023-05-18T21:47:24.630Z,63.55
2023-05-18T21:49:57.661Z,64.05
2023-05-18T21:52:30.885Z,63.80
2023-05-18T21:55:04.030Z,63.75
2023-05-18T21:57:37.058Z,64.61
2023-05-18T22:00:13.711Z,65.27
2023-05-18T22:02:48.196Z,64.24
2023-05-18T22:05:21.268Z,65.20
2023-05-18T22:07:54.538Z,66.51
2023-05-18T22:10:27.581Z,66.24
2023-05-18T22:13:00.813Z,66.20
2023-05-18T22:15:35.969Z,66.41
2023-05-18T22:18:11.138Z,66.00
2023-05-18T22:20:44.603Z,66.86
2023-05-18T22:23:17.618Z,66.61
2023-05-18T22:25:51.316Z,67.20
2023-05-18T22:28:24.389Z,68.05
2023-05-18T22:30:57.438Z,67.30
2023-05-18T22:33:31.877Z,66.82
2023-05-18T22:36:05.759Z,67.10
2023-05-18T22:38:43.046Z,68.28
2023-05-18T22:41:16.409Z,67.81
2023-05-18T22:43:49.560Z,67.45
2023-05-18T22:46:22.718Z,68.67
2023-05-18T22:48:57.427Z,68.82
2023-05-18T22:51:30.508Z,68.61
2023-05-18T22:54:03.555Z,67.43
2023-05-18T22:56:36.630Z,66.53
2023-05-18T22:59:11.555Z,65.20
2023-05-18T23:01:44.565Z,64.50
2023-05-18T23:04:19.608Z,63.87
2023-05-18T23:06:54.119Z,60.96
2023-05-18T23:09:28.558Z,61.22
2023-05-18T23:12:01.577Z,59.58
2023-05-18T23:14:34.714Z,60.05
2023-05-18T23:17:08.185Z,60.91
2023-05-18T23:19:43.709Z,61.08
2023-05-18T23:22:16.801Z,59.93
2023-05-18T23:24:49.829Z,60.51
2023-05-18T23:27:22.877Z,61.36
2023-05-18T23:29:56.005Z,62.83
2023-05-18T23:32:30.033Z,65.01
2023-05-18T23:35:06.635Z,66.84
2023-05-18T23:37:43.201Z,66.93
2023-05-18T23:40:19.073Z,66.27
2023-05-18T23:42:52.921Z,65.82
2023-05-18T23:45:26.669Z,64.96
2023-05-18T23:48:00.499Z,64.67
2023-05-18T23:50:35.858Z,64.09
2023-05-18T23:53:09.905Z,64.27
2023-05-18T23:55:43.745Z,62.56
2023-05-18T23:58:18.474Z,63.00
